Time;durP1;ratioP1;P1;durP2;ratioP2;P2;SDS_P1;SDS_P2;PMS_P1;PMS_P2;Temp;Humidity;BMP_temperature;BMP_pressure;BME280_temperature;BME280_humidity;BME280_pressure;Samples;Min_cycle;Max_cycle;Signal;HPM_P1;HPM_P2
2023/05/06 00:09:23;;;;;;;1.43;0.83;;;;;;;;;;20952064;28;20273;-71
2023/05/06 00:19:26;;;;;;;0.97;0.67;;;;;;;;;;20951032;28;20209;-70
2023/05/06 00:29:28;;;;;;;1.53;0.83;;;;;;;;;;20970235;28;20216;-71
2023/05/06 00:39:29;;;;;;;1.17;0.73;;;16.90;99.90;;;;;;21046759;28;20277;-70
2023/05/06 00:49:31;;;;;;;1.43;0.90;;;;;;;;;;21032451;28;20262;-70
2023/05/06 00:59:33;;;;;;;1.00;0.60;;;;;;;;;;20983123;28;20713;-70
2023/05/06 01:09:45;;;;;;;0.60;0.40;;;17.70;99.90;;;;;;20947222;28;20684;-71
2023/05/06 01:19:52;;;;;;;1.97;0.67;;;17.60;99.90;;;;;;20946267;28;20212;-70
2023/05/06 01:29:54;;;;;;;0.80;0.53;;;17.50;99.90;;;;;;20946265;28;20727;-70
2023/05/06 01:39:59;;;;;;;1.03;0.60;;;17.40;99.90;;;;;;20961448;28;20241;-70
2023/05/06 01:50:01;;;;;;;1.33;0.77;;;;;;;;;;20944436;28;20213;-70
2023/05/06 02:00:03;;;;;;;0.87;0.50;;;;;;;;;;20943577;28;20209;-70
2023/05/06 02:10:14;;;;;;;2.93;0.97;;;;;;;;;;20945316;28;20212;-70
2023/05/06 02:20:21;;;;;;;0.97;0.60;;;;;;;;;;20926571;28;20221;-70
2023/05/06 02:30:22;;;;;;;1.80;0.90;;;;;;;;;;20942875;28;20672;-70
2023/05/06 02:40:25;;;;;;;0.93;0.70;;;;;;;;;;21018201;28;20571;-70
2023/05/06 02:50:27;;;;;;;1.13;0.80;;;;;;;;;;21017506;28;20224;-70
2023/05/06 03:00:29;;;;;;;0.97;0.70;;;;;;;;;;21038859;28;20253;-70
2023/05/06 03:10:30;;;;;;;1.40;0.83;;;;;;;;;;21021523;28;20212;-70
2023/05/06 03:20:34;;;;;;;1.97;0.97;;;;;;;;;;21004509;28;20216;-69
2023/05/06 03:30:36;;;;;;;1.60;0.97;;;;;;;;;;20994625;28;20274;-69
2023/05/06 03:40:41;;;;;;;2.23;1.20;;;;;;;;;;21019204;28;20213;-69
2023/05/06 03:50:44;;;;;;;1.13;0.80;;;;;;;;;;21035522;28;20687;-69
2023/05/06 04:00:47;;;;;;;1.37;0.90;;;;;;;;;;21018899;28;20225;-69
2023/05/06 04:10:49;;;;;;;1.83;1.00;;;;;;;;;;20994414;28;20254;-69
2023/05/06 04:21:00;;;;;;;1.20;0.90;;;;;;;;;;20918375;28;20224;-69
2023/05/06 04:31:07;;;;;;;1.70;1.00;;;;;;;;;;20948160;28;20248;-69
2023/05/06 04:41:22;;;;;;;1.77;1.10;;;;;;;;;;20931950;28;20270;-68
2023/05/06 04:51:25;;;;;;;3.07;1.33;;;;;;;;;;20943826;28;20246;-71
2023/05/06 05:01:28;;;;;;;1.70;1.13;;;;;;;;;;20948393;28;20558;-69
2023/05/06 05:11:30;;;;;;;1.40;1.03;;;;;;;;;;20947888;28;20271;-69
2023/05/06 05:21:34;;;;;;;3.53;1.40;;;;;;;;;;20947163;28;20574;-68
2023/05/06 05:31:36;;;;;;;2.97;1.47;;;;;;;;;;21007609;28;20217;-68
2023/05/06 05:41:38;;;;;;;2.27;1.60;;;;;;;;;;20999207;28;20219;-68
2023/05/06 05:51:40;;;;;;;3.67;1.37;;;;;;;;;;21030848;28;20537;-69
2023/05/06 06:01:44;;;;;;;1.80;1.30;;;;;;;;;;20968204;28;20282;-68
2023/05/06 06:11:46;;;;;;;2.23;1.30;;;;;;;;;;20960032;28;20688;-69
2023/05/06 06:21:49;;;;;;;1.97;1.30;;;;;;;;;;20943166;28;20281;-68
2023/05/06 06:31:54;;;;;;;1.80;1.27;;;;;;;;;;20941574;28;20220;-68
2023/05/06 06:41:57;;;;;;;2.50;1.77;;;17.40;99.90;;;;;;20937507;28;20217;-68
2023/05/06 06:52:00;;;;;;;2.37;1.57;;;;;;;;;;20953617;28;20557;-69
2023/05/06 07:02:03;;;;;;;3.57;1.40;;;;;;;;;;20935730;28;20212;-69
2023/05/06 07:12:05;;;;;;;2.23;1.67;;;17.80;99.90;;;;;;20936481;28;20217;-69
2023/05/06 07:22:07;;;;;;;1.60;1.13;;;;;;;;;;20936012;28;20243;-69
2023/05/06 07:32:09;;;;;;;2.17;1.40;;;;;;;;;;20920046;28;20205;-69
2023/05/06 07:42:11;;;;;;;2.20;1.30;;;;;;;;;;20935326;28;20781;-67
2023/05/06 07:52:14;;;;;;;1.97;0.97;;;;;;;;;;20950272;28;20254;-68
2023/05/06 08:02:16;;;;;;;1.00;0.67;;;;;;;;;;20917263;28;20217;-69
2023/05/06 08:12:17;;;;;;;1.10;0.43;;;;;;;;;;20932316;28;20239;-69
2023/05/06 08:22:19;;;;;;;0.77;0.60;;;;;;;;;;20930978;28;20741;-69
2023/05/06 08:32:22;;;;;;;1.10;0.50;;;;;;;;;;20967618;28;20282;-68
2023/05/06 08:42:27;;;;;;;1.10;0.40;;;;;;;;;;20906931;28;20286;-69
2023/05/06 08:52:29;;;;;;;1.03;0.70;;;;;;;;;;20933765;28;20254;-69
2023/05/06 09:02:31;;;;;;;0.50;0.30;;;;;;;;;;20940229;28;20284;-70
2023/05/06 09:12:36;;;;;;;0.43;0.30;;;19.40;99.90;;;;;;20930090;28;20213;-70
2023/05/06 09:22:39;;;;;;;0.50;0.40;;;;;;;;;;20945316;22;20223;-72
2023/05/06 09:32:41;;;;;;;2.00;0.60;;;;;;;;;;20965566;28;20238;-70
2023/05/06 09:42:44;;;;;;;0.60;0.43;;;;;;;;;;20885173;28;20282;-71
2023/05/06 09:52:47;;;;;;;0.50;0.30;;;21.00;99.90;;;;;;20898646;28;20234;-71
2023/05/06 10:02:49;;;;;;;0.37;0.37;;;;;;;;;;20899729;28;20262;-72
2023/05/06 10:12:50;;;;;;;0.50;0.40;;;;;;;;;;20886170;28;20282;-73
2023/05/06 10:23:22;;;;;;;1.13;0.50;;;20.50;99.90;;;;;;20895579;28;20930;-74
2023/05/06 10:33:26;;;;;;;0.50;0.40;;;20.50;99.90;;;;;;20903515;28;20290;-72
2023/05/06 10:43:30;;;;;;;0.63;0.40;;;21.70;99.90;;;;;;20900429;28;20219;-74
2023/05/06 10:53:58;;;;;;;0.50;0.40;;;21.90;99.90;;;;;;20895209;28;20706;-72
2023/05/06 11:04:12;;;;;;;0.20;0.20;;;21.60;99.90;;;;;;20871534;28;20229;-71
2023/05/06 11:14:15;;;;;;;0.57;0.40;;;;;;;;;;20902770;28;20235;-71
2023/05/06 11:24:26;;;;;;;0.43;0.30;;;22.10;99.90;;;;;;20884359;28;20248;-72
2023/05/06 11:34:30;;;;;;;0.83;0.50;;;22.60;99.90;;;;;;20885729;28;20282;-74
2023/05/06 11:44:33;;;;;;;0.50;0.30;;;;;;;;;;20901994;28;20219;-74
2023/05/06 11:54:36;;;;;;;0.73;0.40;;;;;;;;;;20923741;28;20642;-74
2023/05/06 12:04:39;;;;;;;0.57;0.40;;;;;;;;;;20911287;28;20255;-73
2023/05/06 12:14:41;;;;;;;0.30;0.30;;;;;;;;;;20910451;28;20278;-75
2023/05/06 12:24:43;;;;;;;1.57;0.60;;;;;;;;;;20892110;28;20224;-76
2023/05/06 12:34:45;;;;;;;0.57;0.40;;;;;;;;;;20883110;28;20228;-76
2023/05/06 12:44:47;;;;;;;2.07;0.40;;;;;;;;;;20881794;28;20217;-76
2023/05/06 12:54:49;;;;;;;2.37;0.50;;;22.80;99.90;;;;;;20911794;28;20209;-74
2023/05/06 13:04:51;;;;;;;0.60;0.40;;;;;;;;;;20895115;28;20754;-74
2023/05/06 13:14:52;;;;;;;0.60;0.40;;;;;;;;;;20845894;28;20216;-75
2023/05/06 13:24:55;;;;;;;0.60;0.40;;;;;;;;;;20897477;28;20773;-73
2023/05/06 13:34:56;;;;;;;2.92;0.50;;;;;;;;;;20885026;28;20217;-74
2023/05/06 13:44:58;;;;;;;0.82;0.50;;;;;;;;;;20910414;28;20274;-75
2023/05/06 13:55:00;;;;;;;1.15;0.30;;;;;;;;;;20910036;28;20260;-74
2023/05/06 14:05:02;;;;;;;0.30;0.22;;;;;;;;;;20910594;28;20367;-74
2023/05/06 14:15:07;;;;;;;0.40;0.40;;;;;;;;;;20886590;28;20223;-74
2023/05/06 14:25:09;;;;;;;3.15;0.50;;;;;;;;;;20910575;28;20266;-74
2023/05/06 14:35:11;;;;;;;0.82;0.43;;;;;;;;;;20904223;28;20207;-76
2023/05/06 14:45:14;;;;;;;0.65;0.50;;;;;;;;;;20905565;28;20280;-76
2023/05/06 14:55:16;;;;;;;0.47;0.32;;;;;;;;;;20905665;28;20210;-75
2023/05/06 15:05:17;;;;;;;0.60;0.30;;;;;;;;;;20904871;28;20245;-75
2023/05/06 15:15:20;;;;;;;0.98;0.50;;;;;;;;;;20904499;28;20208;-75
2023/05/06 15:25:21;;;;;;;1.15;0.30;;;;;;;;;;20904451;28;20216;-76
2023/05/06 15:35:23;;;;;;;0.50;0.30;;;;;;;;;;20870689;23;20299;-68
2023/05/06 15:45:26;;;;;;;0.40;0.30;;;;;;;;;;20841259;28;20225;-67
2023/05/06 15:55:28;;;;;;;0.38;0.30;;;;;;;;;;20854549;28;20734;-68
2023/05/06 16:05:30;;;;;;;0.30;0.30;;;;;;;;;;20851301;28;20592;-69
2023/05/06 16:15:32;;;;;;;1.10;0.75;;;;;;;;;;20832925;28;20283;-69
2023/05/06 16:25:34;;;;;;;0.40;0.28;;;;;;;;;;20848488;28;20273;-69
2023/05/06 16:35:35;;;;;;;0.63;0.47;;;;;;;;;;20847639;28;20284;-68
2023/05/06 16:45:38;;;;;;;1.08;0.80;;;;;;;;;;20851641;28;20247;-68
2023/05/06 16:55:46;;;;;;;4.72;0.68;;;23.00;99.90;;;;;;20863759;28;20275;-67
2023/05/06 17:05:48;;;;;;;0.50;0.32;;;;;;;;;;20831094;28;20355;-67
2023/05/06 17:15:50;;;;;;;0.50;0.38;;;;;;;;;;20863223;28;20240;-67
2023/05/06 17:25:52;;;;;;;0.40;0.30;;;;;;;;;;20879435;28;20218;-68
2023/05/06 17:35:53;;;;;;;0.20;0.20;;;;;;;;;;20848984;28;20232;-68
2023/05/06 17:45:55;;;;;;;1.35;0.50;;;;;;;;;;20859668;28;20770;-68
2023/05/06 17:55:57;;;;;;;0.35;0.32;;;;;;;;;;20923530;28;20275;-68
2023/05/06 18:05:59;;;;;;;2.20;0.50;;;;;;;;;;20913421;28;20230;-68
2023/05/06 18:16:01;;;;;;;8.07;1.92;;;;;;;;;;20867615;28;20272;-68
2023/05/06 18:26:04;;;;;;;1.35;0.80;;;;;;;;;;20866081;28;20688;-68
2023/05/06 18:36:06;;;;;;;1.27;0.52;;;;;;;;;;20847078;28;20357;-68
2023/05/06 18:46:08;;;;;;;0.70;0.30;;;;;;;;;;20848270;28;20285;-68
2023/05/06 18:56:11;;;;;;;2.00;0.63;;;;;;;;;;20818745;28;20269;-68
2023/05/06 19:06:13;;;;;;;2.67;0.70;;;;;;;;;;20831466;28;20763;-68
2023/05/06 19:16:15;;;;;;;4.05;0.55;;;;;;;;;;20828216;28;20624;-68
2023/05/06 19:26:17;;;;;;;3.17;0.55;;;;;;;;;;20866718;28;20268;-68
2023/05/06 19:36:18;;;;;;;2.88;0.60;;;;;;;;;;20837142;28;20692;-68
2023/05/06 19:46:20;;;;;;;1.23;0.67;;;;;;;;;;20854528;28;20221;-69
2023/05/06 19:56:22;;;;;;;1.20;0.60;;;;;;;;;;20838055;28;20286;-69
2023/05/06 20:06:24;;;;;;;2.47;0.70;;;;;;;;;;20867149;28;20219;-69
2023/05/06 20:16:25;;;;;;;2.33;1.00;;;;;;;;;;20877001;28;20632;-68
2023/05/06 20:26:27;;;;;;;2.60;0.60;;;;;;;;;;20866232;28;20225;-68
2023/05/06 20:36:30;;;;;;;0.50;0.50;;;21.20;99.90;;;;;;20883197;28;20591;-66
2023/05/06 20:46:35;;;;;;;1.60;0.70;;;;;;;;;;20862641;28;20227;-66
2023/05/06 20:56:41;;;;;;;1.10;0.60;;;;;;;;;;20861696;28;20225;-67
2023/05/06 21:07:06;;;;;;;2.97;0.57;;;;;;;;;;20891464;28;20298;-66
2023/05/06 21:17:16;;;;;;;2.10;0.73;;;;;;;;;;20876911;28;20559;-66
2023/05/06 21:27:24;;;;;;;1.17;0.60;;;20.60;99.90;;;;;;20876693;28;20730;-66
2023/05/06 21:37:30;;;;;;;1.20;0.60;;;;;;;;;;20975030;22;20674;-71
2023/05/06 21:47:31;;;;;;;1.67;0.70;;;;;;;;;;20944612;28;20535;-72
2023/05/06 21:57:33;;;;;;;2.30;0.80;;;;;;;;;;20943553;28;20212;-71
2023/05/06 22:07:35;;;;;;;0.97;0.57;;;;;;;;;;20959798;28;20211;-71
2023/05/06 22:17:37;;;;;;;1.60;0.70;;;;;;;;;;20975103;28;20223;-71
2023/05/06 22:27:39;;;;;;;1.87;0.63;;;;;;;;;;20940977;28;20254;-71
2023/05/06 22:37:41;;;;;;;3.20;0.60;;;;;;;;;;20940188;28;20632;-71
2023/05/06 22:47:43;;;;;;;0.70;0.60;;;;;;;;;;20938413;28;20274;-71
2023/05/06 22:57:48;;;;;;;1.63;0.80;;;;;;;;;;20938864;28;20265;-71
2023/05/06 23:07:50;;;;;;;1.10;0.50;;;;;;;;;;20937757;28;20220;-71
2023/05/06 23:17:52;;;;;;;1.83;0.70;;;;;;;;;;20937483;28;20274;-71
2023/05/06 23:27:54;;;;;;;1.33;0.70;;;;;;;;;;20923699;28;20279;-71
2023/05/06 23:37:55;;;;;;;1.17;0.63;;;;;;;;;;20931384;28;20232;-71
2023/05/06 23:47:57;;;;;;;0.63;0.50;;;;;;;;;;20935262;28;20791;-71
2023/05/06 23:57:59;;;;;;;0.70;0.50;;;;;;;;;;20934578;28;20208;-71
